createdAt,value
2023-04-09T00:01:10.361Z,98978.03
2023-04-09T00:03:38.484Z,98989.13
2023-04-09T00:06:05.619Z,98978.88
2023-04-09T00:08:32.337Z,98981.44
2023-04-09T00:11:00.050Z,98991.72
2023-04-09T00:15:59.433Z,98983.19
2023-04-09T00:18:26.283Z,98987.44
2023-04-09T00:20:52.890Z,98986.59
2023-04-09T00:23:20.959Z,98983.19
2023-04-09T00:25:47.546Z,98978.03
2023-04-09T00:28:14.171Z,98981.47
2023-04-09T00:30:40.809Z,98982.34
2023-04-09T00:33:07.470Z,98982.31
2023-04-09T00:35:34.121Z,98986.59
2023-04-09T00:38:00.787Z,98986.59
2023-04-09T00:40:27.451Z,98988.31
2023-04-09T00:42:54.125Z,98990.88
2023-04-09T00:45:23.590Z,98990.00
2023-04-09T00:47:50.625Z,98992.56
2023-04-09T00:50:17.385Z,98988.31
2023-04-09T00:52:44.112Z,98995.13
2023-04-09T00:55:10.953Z,98999.44
2023-04-09T00:57:37.685Z,98999.44
2023-04-09T01:00:04.976Z,99001.13
2023-04-09T01:02:31.781Z,98996.84
2023-04-09T01:04:58.925Z,98996.84
2023-04-09T01:07:31.566Z,98991.69
2023-04-09T01:10:23.951Z,98998.56
2023-04-09T01:13:15.163Z,98987.44
2023-04-09T01:15:50.364Z,98996.00
2023-04-09T01:18:49.280Z,99000.25
2023-04-09T01:21:20.504Z,98995.13
2023-04-09T01:24:08.795Z,98998.53
2023-04-09T01:26:57.291Z,98996.81
2023-04-09T01:29:26.119Z,98988.28
2023-04-09T01:31:54.431Z,98995.13
2023-04-09T01:34:22.380Z,98987.44
2023-04-09T01:36:53.986Z,98980.56
2023-04-09T01:39:21.282Z,98989.16
2023-04-09T01:41:48.942Z,98990.00
2023-04-09T01:44:20.121Z,98995.97
2023-04-09T01:46:48.376Z,98999.41
2023-04-09T01:49:15.703Z,98993.41
2023-04-09T01:51:42.591Z,98997.72
2023-04-09T01:54:09.597Z,98999.38
2023-04-09T01:56:48.124Z,98998.53
2023-04-09T01:59:15.760Z,98997.69
2023-04-09T02:01:58.684Z,98996.81
2023-04-09T02:04:35.691Z,98989.97
2023-04-09T02:07:12.859Z,98986.53
2023-04-09T02:09:43.582Z,98992.53
2023-04-09T02:12:13.691Z,99002.78
2023-04-09T02:14:41.499Z,98996.81
2023-04-09T02:17:08.276Z,98992.53
2023-04-09T02:19:40.979Z,98994.25
2023-04-09T02:22:08.041Z,98990.81
2023-04-09T02:24:34.824Z,98995.09
2023-04-09T02:27:02.285Z,98995.09
2023-04-09T02:29:28.973Z,98991.69
2023-04-09T02:31:55.605Z,98989.97
2023-04-09T02:34:22.750Z,98988.28
2023-04-09T02:36:49.402Z,98987.44
2023-04-09T02:39:16.220Z,98984.88
2023-04-09T02:41:42.818Z,98987.44
2023-04-09T02:44:09.430Z,98984.84
2023-04-09T02:46:38.965Z,98987.44
2023-04-09T02:49:05.665Z,98990.00
2023-04-09T02:51:34.169Z,98987.44
2023-04-09T02:54:00.806Z,98993.41
2023-04-09T02:56:27.533Z,98997.69
2023-04-09T02:58:54.499Z,98995.13
2023-04-09T03:01:21.370Z,98991.69
2023-04-09T03:03:48.218Z,98990.00
2023-04-09T03:06:15.028Z,98987.44
2023-04-09T03:08:41.658Z,98985.72
2023-04-09T03:11:08.257Z,98984.84
2023-04-09T03:13:34.818Z,98986.56
2023-04-09T03:16:01.416Z,98984.88
2023-04-09T03:18:28.122Z,98994.28
2023-04-09T03:20:54.690Z,98988.25
2023-04-09T03:23:21.298Z,98992.56
2023-04-09T03:25:47.915Z,98987.44
2023-04-09T03:28:14.502Z,98994.28
2023-04-09T03:30:41.297Z,98992.56
2023-04-09T03:33:07.942Z,98992.56
2023-04-09T03:35:34.617Z,98986.59
2023-04-09T03:38:01.277Z,98989.16
2023-04-09T03:40:27.957Z,98992.56
2023-04-09T03:42:54.520Z,98986.59
2023-04-09T03:45:21.424Z,98993.41
2023-04-09T03:47:48.050Z,98996.00
2023-04-09T03:50:14.856Z,99001.13
2023-04-09T03:52:41.423Z,98993.41
2023-04-09T03:55:08.928Z,99005.38
2023-04-09T03:57:35.615Z,99008.81
2023-04-09T04:00:02.204Z,99007.09
2023-04-09T04:02:32.038Z,99011.38
2023-04-09T04:04:58.781Z,99012.22
2023-04-09T04:07:25.682Z,99012.25
2023-04-09T04:09:52.294Z,99013.97
2023-04-09T04:12:18.989Z,99010.53
2023-04-09T04:14:45.820Z,99015.66
2023-04-09T04:17:12.576Z,99014.81
2023-04-09T04:19:39.178Z,99015.66
2023-04-09T04:22:05.782Z,99016.50
2023-04-09T04:24:32.403Z,99017.34
2023-04-09T04:26:59.037Z,99022.47
2023-04-09T04:29:27.744Z,99019.94
2023-04-09T04:31:54.380Z,99015.66
2023-04-09T04:34:20.967Z,99024.19
2023-04-09T04:36:47.512Z,99025.06
2023-04-09T04:39:14.172Z,99031.03
2023-04-09T04:41:40.733Z,99027.63
2023-04-09T04:44:07.319Z,99023.34
2023-04-09T04:46:33.961Z,99033.59
2023-04-09T04:49:00.796Z,99028.47
2023-04-09T04:51:27.892Z,99026.78
2023-04-09T04:53:54.595Z,99031.03
2023-04-09T04:56:21.399Z,99029.34
2023-04-09T04:58:47.971Z,99025.03
2023-04-09T05:01:14.688Z,99030.16
2023-04-09T05:03:41.432Z,99028.47
2023-04-09T05:06:08.058Z,99026.78
2023-04-09T05:08:34.725Z,99032.72
2023-04-09T05:11:01.339Z,99032.75
2023-04-09T05:13:27.965Z,99028.44
2023-04-09T05:15:54.626Z,99036.97
2023-04-09T05:18:21.742Z,99045.50
2023-04-09T05:20:48.316Z,99043.78
2023-04-09T05:23:14.902Z,99045.47
2023-04-09T05:25:41.527Z,99044.66
2023-04-09T05:28:08.279Z,99045.50
2023-04-09T05:30:34.941Z,99048.91
2023-04-09T05:33:01.631Z,99046.34
2023-04-09T05:35:28.300Z,99056.59
2023-04-09T05:37:54.965Z,99053.16
2023-04-09T05:40:21.728Z,99060.84
2023-04-09T05:42:48.364Z,99060.84
2023-04-09T05:45:15.136Z,99062.59
2023-04-09T05:47:41.726Z,99066.84
2023-04-09T05:50:08.677Z,99068.56
2023-04-09T05:52:35.440Z,99067.69
2023-04-09T05:55:02.049Z,99067.66
2023-04-09T05:57:30.597Z,99068.53
2023-04-09T05:59:57.459Z,99067.66
2023-04-09T06:02:25.984Z,99076.22
2023-04-09T06:04:54.691Z,99075.34
2023-04-09T06:07:21.523Z,99080.47
2023-04-09T06:09:48.248Z,99077.06
2023-04-09T06:12:15.796Z,99074.53
2023-04-09T06:14:42.403Z,99073.66
2023-04-09T06:17:09.041Z,99079.66
2023-04-09T06:19:35.887Z,99077.09
2023-04-09T06:22:02.514Z,99081.38
2023-04-09T06:24:31.613Z,99077.13
2023-04-09T06:26:58.263Z,99072.00
2023-04-09T06:29:24.891Z,99072.88
2023-04-09T06:31:51.763Z,99078.81
2023-04-09T06:34:18.416Z,99077.97
2023-04-09T06:36:45.001Z,99077.13
2023-04-09T06:39:11.859Z,99082.25
2023-04-09T06:41:38.470Z,99079.72
2023-04-09T06:44:05.415Z,99075.44
2023-04-09T06:46:32.094Z,99078.00
2023-04-09T06:48:58.750Z,99084.03
2023-04-09T06:51:25.386Z,99085.72
2023-04-09T06:53:52.218Z,99081.47
2023-04-09T06:56:18.940Z,99083.19
2023-04-09T06:58:48.557Z,99086.59
2023-04-09T07:01:17.347Z,99080.63
2023-04-09T07:03:44.152Z,99085.78
2023-04-09T07:06:10.833Z,99081.50
2023-04-09T07:08:37.432Z,99088.34
2023-04-09T07:11:04.150Z,99095.16
2023-04-09T07:13:31.427Z,99096.88
2023-04-09T07:15:58.023Z,99092.59
2023-04-09T07:18:24.652Z,99093.41
2023-04-09T07:20:52.701Z,99095.97
2023-04-09T07:23:19.655Z,99096.78
2023-04-09T07:25:46.324Z,99101.03
2023-04-09T07:28:13.079Z,99101.00
2023-04-09T07:30:42.775Z,99092.41
2023-04-09T07:33:09.437Z,99100.09
2023-04-09T07:35:36.264Z,99098.34
2023-04-09T07:38:03.200Z,99097.47
2023-04-09T07:40:29.807Z,99101.69
2023-04-09T07:43:01.059Z,99100.72
2023-04-09T07:45:27.705Z,99094.63
2023-04-09T07:47:54.364Z,99097.06
2023-04-09T07:50:21.236Z,99099.50
2023-04-09T07:52:47.816Z,99107.16
2023-04-09T07:55:15.159Z,99105.31
2023-04-09T07:57:43.728Z,99102.59
2023-04-09T08:00:11.044Z,99100.72
2023-04-09T08:02:37.832Z,99103.22
2023-04-09T08:05:05.082Z,99104.81
2023-04-09T08:07:31.788Z,99106.38
2023-04-09T08:09:58.364Z,99108.03
2023-04-09T08:12:25.163Z,99100.13
2023-04-09T08:14:51.811Z,99098.25
2023-04-09T08:17:18.404Z,99101.59
2023-04-09T08:19:45.062Z,99093.00
2023-04-09T08:22:11.927Z,99101.47
2023-04-09T08:24:40.269Z,99103.94
2023-04-09T08:27:06.983Z,99102.16
2023-04-09T08:29:34.558Z,99100.34
2023-04-09T08:32:01.369Z,99104.63
2023-04-09T08:34:28.191Z,99105.31
2023-04-09T08:36:54.844Z,99100.00
2023-04-09T08:39:21.622Z,99108.56
2023-04-09T08:41:51.413Z,99101.56
2023-04-09T08:44:18.488Z,99098.91
2023-04-09T08:46:45.214Z,99107.53
2023-04-09T08:49:13.060Z,99106.50
2023-04-09T08:51:40.409Z,99108.88
2023-04-09T08:54:07.529Z,99102.03
2023-04-09T08:56:34.244Z,99113.88
2023-04-09T08:59:00.865Z,99107.84
2023-04-09T09:01:32.608Z,99100.75
2023-04-09T09:04:02.074Z,99112.94
2023-04-09T09:06:32.868Z,99103.28
2023-04-09T09:09:16.934Z,99100.50
2023-04-09T09:11:50.217Z,99098.81
2023-04-09T09:14:18.854Z,99097.06
2023-04-09T09:17:04.750Z,99098.72
2023-04-09T09:19:36.650Z,99099.66
2023-04-09T09:22:05.439Z,99098.78
2023-04-09T09:24:33.369Z,99101.22
2023-04-09T09:27:03.279Z,99108.00
2023-04-09T09:29:30.044Z,99111.34
2023-04-09T09:31:57.014Z,99111.47
2023-04-09T09:34:25.410Z,99108.88
2023-04-09T09:36:52.098Z,99115.66
2023-04-09T09:39:18.909Z,99110.53
2023-04-09T09:41:46.577Z,99104.38
2023-04-09T09:44:31.918Z,99115.50
2023-04-09T09:46:59.367Z,99104.19
2023-04-09T09:49:26.051Z,99107.63
2023-04-09T09:51:56.873Z,99103.28
2023-04-09T09:54:26.016Z,99097.16
2023-04-09T09:56:56.032Z,99103.13
2023-04-09T09:59:32.207Z,99094.50
2023-04-09T10:02:06.215Z,99100.66
2023-04-09T10:04:38.224Z,99101.59
2023-04-09T10:07:07.446Z,99093.81
2023-04-09T10:09:41.688Z,99101.69
2023-04-09T10:12:09.749Z,99095.72
2023-04-09T10:14:38.216Z,99092.31
2023-04-09T10:17:05.286Z,99103.56
2023-04-09T10:19:38.333Z,99091.56
2023-04-09T10:22:11.825Z,99094.88
2023-04-09T10:24:38.986Z,99092.22
2023-04-09T10:27:15.936Z,99089.66
2023-04-09T10:29:51.961Z,99084.34
2023-04-09T10:32:21.650Z,99088.66
2023-04-09T10:34:49.336Z,99088.56
2023-04-09T10:37:21.576Z,99086.03
2023-04-09T10:39:50.011Z,99088.56
2023-04-09T10:42:27.342Z,99083.44
2023-04-09T10:45:10.315Z,99083.47
2023-04-09T10:47:39.513Z,99083.59
2023-04-09T10:50:16.045Z,99084.47
2023-04-09T10:52:44.338Z,99082.72
2023-04-09T10:55:31.547Z,99080.16
2023-04-09T10:57:58.865Z,99080.13
2023-04-09T11:00:25.570Z,99079.44
2023-04-09T11:03:08.016Z,99083.75
2023-04-09T11:05:38.503Z,99085.44
2023-04-09T11:08:13.406Z,99077.72
2023-04-09T11:10:41.384Z,99082.91
2023-04-09T11:13:13.395Z,99076.06
2023-04-09T11:15:40.280Z,99085.53
2023-04-09T11:18:07.241Z,99080.44
2023-04-09T11:20:34.825Z,99077.91
2023-04-09T11:23:02.169Z,99084.78
2023-04-09T11:25:31.533Z,99077.09
2023-04-09T11:27:58.874Z,99079.75
2023-04-09T11:30:26.361Z,99077.16
2023-04-09T11:32:53.207Z,99088.34
2023-04-09T11:35:25.028Z,99084.09
2023-04-09T11:37:52.556Z,99095.28
2023-04-09T11:40:29.150Z,99087.56
2023-04-09T11:42:57.079Z,99096.16
2023-04-09T11:45:27.451Z,99097.06
2023-04-09T11:47:55.056Z,99089.25
2023-04-09T11:50:22.427Z,99098.69
2023-04-09T11:52:49.829Z,99098.69
2023-04-09T11:55:27.105Z,99094.38
2023-04-09T11:57:57.574Z,99096.97
2023-04-09T12:00:25.152Z,99099.59
2023-04-09T12:03:04.243Z,99101.31
2023-04-09T12:05:33.833Z,99106.47
2023-04-09T12:08:02.659Z,99105.59
2023-04-09T12:10:32.639Z,99109.88
2023-04-09T12:13:07.063Z,99105.59
2023-04-09T12:15:35.629Z,99112.44
2023-04-09T12:18:02.398Z,99109.84
2023-04-09T12:20:37.771Z,99107.25
2023-04-09T12:23:05.840Z,99101.16
2023-04-09T12:25:36.993Z,99104.50
2023-04-09T12:28:05.898Z,99106.97
2023-04-09T12:30:33.252Z,99100.88
2023-04-09T12:33:00.500Z,99096.56
2023-04-09T12:35:30.490Z,99109.44
2023-04-09T12:37:57.118Z,99099.03
2023-04-09T12:40:23.752Z,99096.41
2023-04-09T12:42:50.728Z,99095.53
2023-04-09T12:45:18.812Z,99092.06
2023-04-09T12:47:46.050Z,99093.72
2023-04-09T12:50:15.018Z,99094.31
2023-04-09T12:52:42.647Z,99095.06
2023-04-09T12:55:09.896Z,99092.44
2023-04-09T12:57:42.808Z,99094.94
2023-04-09T13:00:09.908Z,99087.16
2023-04-09T13:02:37.113Z,99092.09
2023-04-09T13:05:04.644Z,99090.19
2023-04-09T13:07:31.422Z,99088.34
2023-04-09T13:09:58.283Z,99096.88
2023-04-09T13:12:27.626Z,99095.19
2023-04-09T13:14:54.974Z,99095.19
2023-04-09T13:17:22.789Z,99091.78
2023-04-09T13:19:50.825Z,99088.31
2023-04-09T13:22:18.500Z,99092.66
2023-04-09T13:24:45.270Z,99090.97
2023-04-09T13:27:12.308Z,99088.44
2023-04-09T13:29:39.143Z,99086.72
2023-04-09T13:32:11.210Z,99088.41
2023-04-09T13:34:39.279Z,99092.75
2023-04-09T13:37:06.304Z,99093.53
2023-04-09T13:39:33.261Z,99092.75
2023-04-09T13:42:00.444Z,99084.09
2023-04-09T13:44:27.518Z,99090.06
2023-04-09T13:46:57.163Z,99084.03
2023-04-09T13:49:24.002Z,99085.69
2023-04-09T13:51:52.246Z,99087.34
2023-04-09T13:54:19.071Z,99088.09
2023-04-09T13:56:46.673Z,99088.84
2023-04-09T13:59:13.331Z,99093.00
2023-04-09T14:04:06.652Z,99081.59
2023-04-09T14:06:33.315Z,99078.94
2023-04-09T14:08:59.960Z,99078.84
2023-04-09T14:11:26.604Z,99079.63
2023-04-09T14:13:53.472Z,99080.50
2023-04-09T14:16:20.361Z,99080.38
2023-04-09T14:18:50.086Z,99082.06
2023-04-09T14:21:18.177Z,99078.63
2023-04-09T14:23:44.834Z,99073.44
2023-04-09T14:26:12.179Z,99075.06
2023-04-09T14:28:38.928Z,99071.53
2023-04-09T14:31:06.512Z,99075.66
2023-04-09T14:33:33.236Z,99075.56
2023-04-09T14:35:59.938Z,99064.41
2023-04-09T14:38:29.480Z,99065.38
2023-04-09T14:40:56.181Z,99068.84
2023-04-09T14:43:22.822Z,99063.78
2023-04-09T14:45:49.457Z,99062.94
2023-04-09T14:48:18.902Z,99062.00
2023-04-09T14:50:45.590Z,99068.84
2023-04-09T14:53:12.552Z,99070.47
2023-04-09T14:55:39.164Z,99064.41
2023-04-09T14:58:08.145Z,99066.28
2023-04-09T15:00:34.811Z,99067.19
2023-04-09T15:03:04.221Z,99061.19
2023-04-09T15:05:31.186Z,99057.72
2023-04-09T15:07:57.842Z,99058.69
2023-04-09T15:10:24.516Z,99062.13
2023-04-09T15:12:55.033Z,99056.91
2023-04-09T15:15:21.749Z,99057.69
2023-04-09T15:17:48.438Z,99065.38
2023-04-09T15:20:15.173Z,99060.09
2023-04-09T15:22:41.869Z,99064.50
2023-04-09T15:25:08.764Z,99059.31
2023-04-09T15:27:38.755Z,99061.91
2023-04-09T15:30:06.429Z,99057.50
2023-04-09T15:32:35.542Z,99063.69
2023-04-09T15:35:02.252Z,99061.09
2023-04-09T15:37:28.877Z,99058.59
2023-04-09T15:39:55.500Z,99058.47
2023-04-09T15:42:23.029Z,99062.78
2023-04-09T15:44:53.147Z,99055.94
2023-04-09T15:47:19.786Z,99054.97
2023-04-09T15:49:46.950Z,99056.72
2023-04-09T15:52:13.713Z,99062.69
2023-04-09T15:54:40.400Z,99062.75
2023-04-09T15:57:07.037Z,99062.94
2023-04-09T15:59:33.706Z,99061.19
2023-04-09T16:02:00.563Z,99062.09
2023-04-09T16:04:27.725Z,99059.63
2023-04-09T16:06:56.399Z,99064.06
2023-04-09T16:09:24.924Z,99058.88
2023-04-09T16:11:51.708Z,99059.88
2023-04-09T16:14:18.413Z,99062.53
2023-04-09T16:16:49.886Z,99066.06
2023-04-09T16:19:17.813Z,99065.25
2023-04-09T16:21:45.592Z,99064.50
2023-04-09T16:24:12.939Z,99062.78
2023-04-09T16:26:41.219Z,99064.59
2023-04-09T16:29:08.641Z,99068.94
2023-04-09T16:31:36.737Z,99061.31
2023-04-09T16:34:03.672Z,99062.22
2023-04-09T16:36:37.176Z,99058.88
2023-04-09T16:39:05.153Z,99058.94
2023-04-09T16:41:32.961Z,99064.19
2023-04-09T16:44:00.522Z,99061.63
2023-04-09T16:46:27.373Z,99060.69
2023-04-09T16:48:54.214Z,99058.94
2023-04-09T16:51:21.131Z,99058.94
2023-04-09T16:53:48.008Z,99062.38
2023-04-09T16:56:15.655Z,99062.44
2023-04-09T16:58:42.279Z,99065.91
2023-04-09T17:01:09.005Z,99065.94
2023-04-09T17:03:35.733Z,99065.16
2023-04-09T17:06:02.776Z,99071.28
2023-04-09T17:08:29.380Z,99070.50
2023-04-09T17:11:02.061Z,99066.22
2023-04-09T17:13:34.279Z,99075.81
2023-04-09T17:16:01.026Z,99075.88
2023-04-09T17:18:27.866Z,99076.81
2023-04-09T17:20:54.633Z,99071.69
2023-04-09T17:23:23.184Z,99074.25
2023-04-09T17:25:49.827Z,99084.69
2023-04-09T17:28:18.795Z,99083.03
2023-04-09T17:30:46.051Z,99082.19
2023-04-09T17:33:12.903Z,99083.16
2023-04-09T17:35:39.655Z,99084.91
2023-04-09T17:38:06.710Z,99088.41
2023-04-09T17:40:33.298Z,99089.38
2023-04-09T17:43:00.377Z,99092.94
2023-04-09T17:45:29.849Z,99091.25
2023-04-09T17:47:57.313Z,99091.34
2023-04-09T17:50:27.395Z,99094.81
2023-04-09T17:52:54.050Z,99104.34
2023-04-09T17:55:20.762Z,99100.94
2023-04-09T17:57:47.462Z,99091.56
2023-04-09T18:00:17.364Z,99091.63
2023-04-09T18:02:45.128Z,99097.69
2023-04-09T18:05:11.991Z,99096.00
2023-04-09T18:07:38.693Z,99096.94
2023-04-09T18:10:06.331Z,99109.03
2023-04-09T18:12:33.099Z,99109.09
2023-04-09T18:14:59.730Z,99110.84
2023-04-09T18:17:26.616Z,99113.50
2023-04-09T18:19:58.627Z,99114.41
2023-04-09T18:22:27.028Z,99115.31
2023-04-09T18:24:54.172Z,99115.38
2023-04-09T18:27:23.134Z,99115.41
2023-04-09T18:29:49.790Z,99115.44
2023-04-09T18:32:19.198Z,99112.03
2023-04-09T18:34:47.165Z,99113.81
2023-04-09T18:37:14.889Z,99119.88
2023-04-09T18:39:44.347Z,99126.72
2023-04-09T18:42:10.995Z,99116.41
2023-04-09T18:44:37.827Z,99122.53
2023-04-09T18:47:09.392Z,99124.50
2023-04-09T18:49:36.250Z,99125.41
2023-04-09T18:52:05.582Z,99128.97
2023-04-09T18:54:36.484Z,99123.81
2023-04-09T18:57:06.597Z,99131.53
2023-04-09T18:59:34.804Z,99136.72
2023-04-09T19:02:03.813Z,99141.03
2023-04-09T19:04:35.223Z,99129.00
2023-04-09T19:07:02.622Z,99130.72
2023-04-09T19:09:29.355Z,99134.13
2023-04-09T19:11:57.812Z,99132.41
2023-04-09T19:14:25.817Z,99135.84
2023-04-09T19:16:52.420Z,99139.31
2023-04-09T19:19:19.363Z,99141.03
2023-04-09T19:21:45.998Z,99132.41
2023-04-09T19:24:12.687Z,99135.03
2023-04-09T19:26:39.586Z,99129.97
2023-04-09T19:29:06.227Z,99142.03
2023-04-09T19:31:32.877Z,99142.09
2023-04-09T19:33:59.472Z,99145.50
2023-04-09T19:36:26.902Z,99149.00
2023-04-09T19:38:53.785Z,99145.59
2023-04-09T19:41:20.763Z,99147.31
2023-04-09T19:43:47.394Z,99150.78
2023-04-09T19:46:14.081Z,99141.38
2023-04-09T19:48:44.748Z,99144.81
2023-04-09T19:51:18.706Z,99147.38
2023-04-09T19:53:48.276Z,99152.56
2023-04-09T19:56:15.709Z,99149.16
2023-04-09T19:58:43.519Z,99154.31
2023-04-09T20:01:10.214Z,99150.91
2023-04-09T20:03:37.138Z,99148.25
2023-04-09T20:06:09.261Z,99151.72
2023-04-09T20:08:36.964Z,99149.13
2023-04-09T20:11:03.744Z,99147.50
2023-04-09T20:13:30.345Z,99146.66
2023-04-09T20:15:57.301Z,99158.78
2023-04-09T20:18:23.990Z,99153.63
2023-04-09T20:20:53.392Z,99152.75
2023-04-09T20:23:20.071Z,99153.66
2023-04-09T20:25:46.969Z,99155.41
2023-04-09T20:28:13.619Z,99153.72
2023-04-09T20:30:40.317Z,99150.28
2023-04-09T20:33:06.983Z,99152.88
2023-04-09T20:35:36.653Z,99152.03
2023-04-09T20:38:03.528Z,99148.59
2023-04-09T20:40:31.383Z,99148.63
2023-04-09T20:42:58.042Z,99143.50
2023-04-09T20:45:24.680Z,99146.16
2023-04-09T20:47:53.140Z,99153.91
2023-04-09T20:50:19.945Z,99150.50
2023-04-09T20:52:47.574Z,99149.66
2023-04-09T20:55:14.355Z,99155.72
2023-04-09T20:57:41.454Z,99160.06
2023-04-09T21:00:08.774Z,99157.53
2023-04-09T21:02:35.581Z,99155.78
2023-04-09T21:05:15.058Z,99161.84
2023-04-09T21:07:48.301Z,99167.88
2023-04-09T21:10:15.011Z,99161.91
2023-04-09T21:12:41.669Z,99162.78
2023-04-09T21:15:08.846Z,99167.09
2023-04-09T21:17:35.531Z,99168.88
2023-04-09T21:20:02.313Z,99164.50
2023-04-09T21:22:28.908Z,99165.44
2023-04-09T21:24:56.397Z,99167.94
2023-04-09T21:27:23.168Z,99164.56
2023-04-09T21:29:49.908Z,99173.16
2023-04-09T21:32:17.482Z,99171.50
2023-04-09T21:34:44.092Z,99162.06
2023-04-09T21:37:11.149Z,99167.22
2023-04-09T21:39:38.554Z,99171.44
2023-04-09T21:42:06.451Z,99164.50
2023-04-09T21:44:33.811Z,99164.47
2023-04-09T21:47:01.690Z,99161.94
2023-04-09T21:49:28.337Z,99162.88
2023-04-09T21:51:55.829Z,99165.53
2023-04-09T21:54:22.432Z,99168.09
2023-04-09T21:56:51.219Z,99165.53
2023-04-09T21:59:17.861Z,99169.03
2023-04-09T22:01:44.933Z,99180.16
2023-04-09T22:04:12.056Z,99176.78
2023-04-09T22:06:39.806Z,99178.56
2023-04-09T22:09:06.399Z,99183.81
2023-04-09T22:11:34.504Z,99186.44
2023-04-09T22:14:02.641Z,99188.09
2023-04-09T22:16:29.402Z,99192.47
2023-04-09T22:18:56.275Z,99184.69
2023-04-09T22:21:23.534Z,99181.38
2023-04-09T22:23:50.124Z,99183.94
2023-04-09T22:26:16.947Z,99184.00
2023-04-09T22:28:43.588Z,99180.59
2023-04-09T22:31:10.249Z,99183.22
2023-04-09T22:33:36.915Z,99181.53
2023-04-09T22:36:03.803Z,99185.00
2023-04-09T22:38:30.579Z,99179.03
2023-04-09T22:40:57.203Z,99179.03
2023-04-09T22:43:23.852Z,99184.28
2023-04-09T22:45:52.368Z,99186.06
2023-04-09T22:48:19.757Z,99185.19
2023-04-09T22:50:47.042Z,99174.09
2023-04-09T22:53:20.935Z,99174.13
2023-04-09T22:55:51.757Z,99184.44
2023-04-09T22:58:19.098Z,99184.41
2023-04-09T23:00:47.197Z,99184.41
2023-04-09T23:03:14.348Z,99180.19
2023-04-09T23:05:41.542Z,99180.22
2023-04-09T23:08:08.490Z,99182.81
2023-04-09T23:10:35.554Z,99182.81
2023-04-09T23:13:02.439Z,99188.00
2023-04-09T23:15:29.226Z,99191.47
2023-04-09T23:17:56.257Z,99180.34
2023-04-09T23:20:23.123Z,99178.66
2023-04-09T23:22:49.831Z,99179.53
2023-04-09T23:25:16.950Z,99179.59
2023-04-09T23:27:43.887Z,99179.59
2023-04-09T23:30:11.723Z,99171.88
2023-04-09T23:32:38.420Z,99183.00
2023-04-09T23:35:05.537Z,99171.88
2023-04-09T23:37:32.215Z,99177.06
2023-04-09T23:39:58.881Z,99177.94
2023-04-09T23:42:29.836Z,99171.09
2023-04-09T23:44:56.448Z,99170.25
2023-04-09T23:47:23.108Z,99173.72
2023-04-09T23:49:49.977Z,99174.53
2023-04-09T23:52:16.572Z,99173.69
2023-04-09T23:54:49.695Z,99166.88
2023-04-09T23:57:17.789Z,99162.59
2023-04-09T23:59:44.472Z,99153.19
